Time;durP1;ratioP1;P1;durP2;ratioP2;P2;SDS_P1;SDS_P2;PMS_P1;PMS_P2;Temp;Humidity;BMP_temperature;BMP_pressure;BME280_temperature;BME280_humidity;BME280_pressure;Samples;Min_cycle;Max_cycle;Signal;HPM_P1;HPM_P2
2022/01/04 00:00:17;;;;;;;2.33;1.10;;;10.60;99.90;;;;;;5034164;28;20065;-69
2022/01/04 00:02:43;;;;;;;3.55;1.25;;;10.60;99.90;;;;;;5033844;28;20074;-70
2022/01/04 00:05:10;;;;;;;2.70;0.95;;;10.60;99.90;;;;;;5034245;28;20115;-69
2022/01/04 00:07:37;;;;;;;3.85;1.50;;;10.60;99.90;;;;;;5033152;28;20053;-69
2022/01/04 00:10:04;;;;;;;3.22;1.05;;;10.60;99.90;;;;;;5034693;28;20111;-71
2022/01/04 00:15:14;;;;;;;4.10;1.17;;;10.60;99.90;;;;;;5042551;28;20068;-70
2022/01/04 00:17:39;;;;;;;1.87;0.87;;;10.60;99.90;;;;;;5043565;28;20128;-72
2022/01/04 00:20:06;;;;;;;3.47;1.10;;;10.50;99.90;;;;;;5042668;28;20532;-69
2022/01/04 00:22:33;;;;;;;2.60;1.00;;;10.60;99.90;;;;;;5041056;28;20033;-69
2022/01/04 00:24:59;;;;;;;3.50;0.93;;;10.60;99.90;;;;;;5038312;28;20075;-70
2022/01/04 00:27:24;;;;;;;5.63;1.30;;;10.60;99.90;;;;;;5037575;28;20026;-69
2022/01/04 00:29:51;;;;;;;2.03;1.00;;;10.60;99.90;;;;;;5040523;28;20414;-69
2022/01/04 00:32:16;;;;;;;3.38;1.40;;;10.50;99.90;;;;;;5039792;28;20354;-68
2022/01/04 00:34:43;;;;;;;7.03;2.50;;;10.50;99.90;;;;;;5035344;28;20136;-68
2022/01/04 00:37:09;;;;;;;4.40;1.10;;;10.50;99.90;;;;;;5036496;28;20260;-69
2022/01/04 00:39:35;;;;;;;4.57;1.35;;;10.60;99.90;;;;;;5035134;28;20149;-69
2022/01/04 00:42:01;;;;;;;2.70;1.42;;;10.50;99.90;;;;;;5034856;28;20094;-69
2022/01/04 00:44:27;;;;;;;3.88;1.10;;;10.50;99.90;;;;;;5034562;28;20033;-69
2022/01/04 00:46:53;;;;;;;5.85;1.58;;;10.60;99.90;;;;;;5034434;28;20036;-67
2022/01/04 00:49:21;;;;;;;6.03;1.73;;;10.50;99.90;;;;;;5035759;28;20031;-68
2022/01/04 00:51:51;;;;;;;6.53;1.60;;;10.50;99.90;;;;;;5035750;28;20433;-68
2022/01/04 00:54:17;;;;;;;5.57;1.73;;;10.50;99.90;;;;;;5034241;28;20022;-69
2022/01/04 00:56:44;;;;;;;3.28;1.17;;;10.50;99.90;;;;;;5034300;28;20029;-68
2022/01/04 00:59:10;;;;;;;3.90;1.75;;;10.50;99.90;;;;;;5035432;28;20079;-68
2022/01/04 01:01:36;;;;;;;1.85;1.23;;;10.50;99.90;;;;;;5035528;28;20393;-69
2022/01/04 01:04:03;;;;;;;;;;;10.50;99.90;;;;;;5036048;28;20120;-69
2022/01/04 01:06:29;;;;;;;3.05;1.00;;;10.40;99.90;;;;;;5034166;28;19905;-69
2022/01/04 01:08:54;;;;;;;3.87;1.17;;;10.40;99.90;;;;;;5035783;28;20113;-69
2022/01/04 01:11:20;;;;;;;4.90;1.50;;;10.40;99.90;;;;;;5035866;28;20036;-68
2022/01/04 01:13:46;;;;;;;5.00;1.67;;;10.50;99.90;;;;;;5034240;28;20017;-69
2022/01/04 01:16:15;;;;;;;2.13;1.00;;;10.40;99.90;;;;;;5035372;28;20109;-69
2022/01/04 01:18:41;;;;;;;3.42;1.33;;;10.40;99.90;;;;;;5034118;28;20036;-70
2022/01/04 01:21:07;;;;;;;3.15;1.20;;;10.40;99.90;;;;;;5034408;28;20493;-68
2022/01/04 01:23:34;;;;;;;2.25;1.10;;;10.40;99.90;;;;;;5035213;28;20450;-69
2022/01/04 01:26:01;;;;;;;4.95;1.20;;;10.40;99.90;;;;;;5035176;28;20025;-68
2022/01/04 01:28:27;;;;;;;3.70;1.00;;;10.40;99.90;;;;;;5033792;28;20549;-68
2022/01/04 01:30:53;;;;;;;2.05;1.00;;;10.40;99.90;;;;;;5034826;28;20068;-68
2022/01/04 01:33:19;;;;;;;6.78;4.40;;;10.40;99.90;;;;;;5033511;28;20466;-68
2022/01/04 01:35:46;;;;;;;3.50;1.50;;;10.40;99.90;;;;;;5033441;28;20034;-69
2022/01/04 01:38:14;;;;;;;1.90;1.10;;;10.40;99.90;;;;;;5034843;28;20029;-70
2022/01/04 01:40:40;;;;;;;4.00;1.85;;;10.40;99.90;;;;;;5035058;28;20457;-69
2022/01/04 01:43:07;;;;;;;5.82;1.90;;;10.30;99.90;;;;;;5035101;28;20100;-68
2022/01/04 01:45:33;;;;;;;2.22;1.10;;;10.30;99.90;;;;;;5035326;28;20065;-68
2022/01/04 01:47:59;;;;;;;5.70;1.70;;;10.30;99.90;;;;;;5033760;28;20033;-68
2022/01/04 01:50:26;;;;;;;2.30;1.50;;;10.20;99.90;;;;;;5034702;28;20083;-70
2022/01/04 01:52:53;;;;;;;4.25;1.70;;;10.20;99.90;;;;;;5036408;28;20091;-68
2022/01/04 01:55:20;;;;;;;6.38;3.33;;;10.20;99.90;;;;;;5033643;28;20044;-70
2022/01/04 01:57:47;;;;;;;10.48;4.65;;;10.20;99.90;;;;;;5035117;28;20025;-68
2022/01/04 02:00:15;;;;;;;5.68;2.50;;;10.30;99.90;;;;;;5034929;28;20036;-69
2022/01/04 02:02:41;;;;;;;2.58;1.40;;;10.30;99.90;;;;;;5035060;28;20057;-69
2022/01/04 02:05:08;;;;;;;4.88;1.33;;;10.40;99.90;;;;;;5034680;28;20022;-69
2022/01/04 02:07:35;;;;;;;4.85;1.38;;;10.40;99.90;;;;;;5033535;28;20030;-69
2022/01/04 02:10:05;;;;;;;2.53;1.10;;;10.40;99.90;;;;;;5034525;28;20433;-69
2022/01/04 02:12:33;;;;;;;3.58;1.80;;;10.40;99.90;;;;;;5035189;28;20026;-69
2022/01/04 02:14:59;;;;;;;4.85;1.38;;;10.40;99.90;;;;;;5033864;28;20442;-69
2022/01/04 02:17:24;;;;;;;2.80;1.40;;;10.30;99.90;;;;;;5032762;28;20108;-68
2022/01/04 02:19:55;;;;;;;5.95;2.40;;;10.30;99.90;;;;;;5033976;28;20036;-69
2022/01/04 02:22:21;;;;;;;2.60;1.35;;;10.30;99.90;;;;;;5032872;28;20075;-68
2022/01/04 02:24:47;;;;;;;3.42;1.75;;;10.30;99.90;;;;;;5034044;28;20022;-69
2022/01/04 02:27:14;;;;;;;6.07;1.67;;;10.30;99.90;;;;;;5034274;28;20040;-69
2022/01/04 02:29:40;;;;;;;2.58;1.40;;;10.30;99.90;;;;;;5034146;28;20287;-69
2022/01/04 02:32:06;;;;;;;3.97;1.70;;;10.30;99.90;;;;;;5032521;28;20034;-69
2022/01/04 02:34:32;;;;;;;5.43;2.17;;;10.30;99.90;;;;;;5032611;28;20211;-69
2022/01/04 02:36:58;;;;;;;2.70;1.77;;;10.30;99.90;;;;;;5033799;28;20033;-68
2022/01/04 02:39:24;;;;;;;3.28;1.73;;;10.30;99.90;;;;;;5033765;28;20033;-68
2022/01/04 02:41:49;;;;;;;3.67;1.10;;;10.30;99.90;;;;;;5033636;28;20033;-69
2022/01/04 02:44:15;;;;;;;2.77;1.53;;;10.30;99.90;;;;;;5033839;28;20040;-69
2022/01/04 02:46:41;;;;;;;5.15;1.60;;;10.30;99.90;;;;;;5032421;28;20033;-69
2022/01/04 02:49:07;;;;;;;7.68;1.75;;;10.30;99.90;;;;;;5035120;28;20033;-69
2022/01/04 02:51:32;;;;;;;3.17;1.33;;;10.30;99.90;;;;;;5034816;28;20037;-68
2022/01/04 02:53:58;;;;;;;3.30;1.50;;;10.30;99.90;;;;;;5034800;28;20022;-69
2022/01/04 02:56:23;;;;;;;5.07;2.43;;;10.20;99.90;;;;;;5033219;28;20335;-68
2022/01/04 02:58:49;;;;;;;3.27;1.40;;;10.20;99.90;;;;;;5042105;28;20025;-69
2022/01/04 03:01:15;;;;;;;3.80;1.63;;;10.20;99.90;;;;;;5053903;28;20030;-69
2022/01/04 03:03:40;;;;;;;2.63;1.43;;;10.20;99.90;;;;;;5044241;28;20536;-69
2022/01/04 03:06:06;;;;;;;5.10;1.70;;;10.20;99.90;;;;;;5033529;28;20437;-69
2022/01/04 03:08:34;;;;;;;1.77;1.37;;;10.20;99.90;;;;;;5033331;28;20287;-68
2022/01/04 03:11:00;;;;;;;3.35;1.40;;;10.20;99.90;;;;;;5033224;28;20115;-69
2022/01/04 03:13:26;;;;;;;6.70;1.70;;;10.20;99.90;;;;;;5033608;28;20521;-69
2022/01/04 03:15:52;;;;;;;;;;;10.20;99.90;;;;;;5033958;28;20021;-69
2022/01/04 03:18:17;;;;;;;6.53;3.20;;;10.20;99.90;;;;;;5032288;28;19927;-70
2022/01/04 03:20:43;;;;;;;5.50;2.40;;;10.20;99.90;;;;;;5033088;28;20017;-69
2022/01/04 03:23:10;;;;;;;4.70;2.03;;;10.20;99.90;;;;;;5032052;28;20025;-68
2022/01/04 03:25:36;;;;;;;4.82;2.53;;;10.20;99.90;;;;;;5033718;28;20386;-69
2022/01/04 03:28:03;;;;;;;8.85;3.38;;;10.10;99.90;;;;;;5032390;28;20391;-69
2022/01/04 03:30:28;;;;;;;6.28;3.20;;;10.10;99.90;;;;;;5036598;28;20084;-70
2022/01/04 03:32:54;;;;;;;2.42;1.77;;;10.10;99.90;;;;;;5033385;28;20025;-69
2022/01/04 03:35:21;;;;;;;7.85;2.53;;;10.10;99.90;;;;;;5031970;28;20025;-69
2022/01/04 03:37:47;;;;;;;4.05;2.00;;;10.10;99.90;;;;;;5033568;28;20025;-69
2022/01/04 03:40:13;;;;;;;2.83;1.60;;;10.10;99.90;;;;;;5033949;28;20032;-68
2022/01/04 03:42:39;;;;;;;3.55;2.15;;;10.10;99.90;;;;;;5033381;28;20096;-69
2022/01/04 03:45:05;;;;;;;8.68;1.80;;;10.10;99.90;;;;;;5034287;28;20099;-69
2022/01/04 03:47:31;;;;;;;3.00;1.75;;;10.10;99.90;;;;;;5037174;28;20044;-69
2022/01/04 03:49:57;;;;;;;1.90;1.58;;;10.10;99.90;;;;;;5036960;28;20037;-69
2022/01/04 03:52:22;;;;;;;4.07;1.80;;;10.10;99.90;;;;;;5036804;28;20146;-69
2022/01/04 03:54:48;;;;;;;7.03;1.80;;;10.10;99.90;;;;;;5036596;28;20268;-69
2022/01/04 03:57:14;;;;;;;3.10;1.70;;;10.10;99.90;;;;;;5035091;28;20105;-69
2022/01/04 03:59:39;;;;;;;3.97;1.27;;;10.10;99.90;;;;;;5039848;28;20075;-70
2022/01/04 04:02:05;;;;;;;3.20;1.40;;;10.00;99.90;;;;;;5040262;28;20494;-69
2022/01/04 04:04:31;;;;;;;4.55;1.73;;;10.10;99.90;;;;;;5036654;28;20528;-70
2022/01/04 04:06:56;;;;;;;7.40;1.53;;;10.10;99.90;;;;;;5036121;28;20037;-69
2022/01/04 04:09:22;;;;;;;6.07;1.50;;;10.10;99.90;;;;;;5034811;28;20057;-69
2022/01/04 04:11:48;;;;;;;4.35;1.38;;;10.10;99.90;;;;;;5036497;28;20029;-69
2022/01/04 04:14:14;;;;;;;4.30;1.30;;;10.10;99.90;;;;;;5036324;28;20071;-69
2022/01/04 04:16:39;;;;;;;2.45;1.35;;;10.20;99.90;;;;;;5036427;28;20025;-70
2022/01/04 04:19:05;;;;;;;2.58;1.17;;;10.20;99.90;;;;;;5036144;28;20025;-69
2022/01/04 04:21:31;;;;;;;3.07;1.77;;;10.10;99.90;;;;;;5034989;28;20025;-70
2022/01/04 04:23:57;;;;;;;2.25;1.02;;;10.10;99.90;;;;;;5036177;28;20099;-69
2022/01/04 04:26:22;;;;;;;2.07;1.23;;;10.10;99.90;;;;;;5036734;28;20466;-69
2022/01/04 04:28:48;;;;;;;1.87;1.20;;;10.20;99.90;;;;;;5036565;28;20256;-69
2022/01/04 04:31:14;;;;;;;1.80;1.10;;;10.20;99.90;;;;;;5036262;28;20033;-69
2022/01/04 04:33:39;;;;;;;3.70;1.13;;;10.20;99.90;;;;;;5036065;28;20022;-70
2022/01/04 04:36:08;;;;;;;3.33;1.40;;;10.20;99.90;;;;;;5034933;28;20579;-69
2022/01/04 04:38:33;;;;;;;1.63;1.00;;;10.20;99.90;;;;;;5035740;28;20112;-69
2022/01/04 04:40:59;;;;;;;3.63;1.37;;;10.20;99.90;;;;;;5036020;28;20037;-69
2022/01/04 04:43:24;;;;;;;2.33;1.20;;;10.20;99.90;;;;;;5035007;28;20017;-69
2022/01/04 04:45:51;;;;;;;3.77;1.30;;;10.20;99.90;;;;;;5035783;28;20033;-68
2022/01/04 04:48:16;;;;;;;;;;;10.20;99.90;;;;;;5035954;28;20032;-69
2022/01/04 04:50:42;;;;;;;3.95;1.20;;;10.10;99.90;;;;;;5034491;28;19909;-69
2022/01/04 04:53:08;;;;;;;4.37;1.10;;;10.20;99.90;;;;;;5035579;28;20056;-69
2022/01/04 04:55:33;;;;;;;2.53;1.10;;;10.20;99.90;;;;;;5035713;28;20056;-69
2022/01/04 04:57:59;;;;;;;2.03;0.93;;;10.20;99.90;;;;;;5034705;28;20095;-69
2022/01/04 05:00:25;;;;;;;1.83;1.33;;;10.20;99.90;;;;;;5035843;28;20079;-68
2022/01/04 05:02:51;;;;;;;2.20;1.10;;;10.20;99.90;;;;;;5034601;28;20025;-69
2022/01/04 05:05:16;;;;;;;3.60;1.27;;;10.20;99.90;;;;;;5034406;28;20420;-69
2022/01/04 05:07:42;;;;;;;2.57;1.00;;;10.30;99.90;;;;;;5034197;28;20033;-68
2022/01/04 05:10:09;;;;;;;3.38;1.23;;;10.30;99.90;;;;;;5035353;28;20044;-70
2022/01/04 05:12:35;;;;;;;1.73;1.20;;;10.30;99.90;;;;;;5034288;28;20033;-69
2022/01/04 05:15:01;;;;;;;3.92;1.20;;;10.30;99.90;;;;;;5034623;28;20540;-69
2022/01/04 05:17:27;;;;;;;4.47;2.58;;;10.30;99.90;;;;;;5034346;28;20025;-69
2022/01/04 05:19:53;;;;;;;1.60;1.00;;;10.30;99.90;;;;;;5036536;28;20082;-69
2022/01/04 05:22:19;;;;;;;4.33;2.33;;;10.30;99.90;;;;;;5038907;28;20108;-68
2022/01/04 05:24:45;;;;;;;3.53;2.00;;;10.30;99.90;;;;;;5036498;28;20030;-69
2022/01/04 05:27:10;;;;;;;4.00;2.65;;;10.30;99.90;;;;;;5038121;28;20110;-69
2022/01/04 05:29:36;;;;;;;4.47;1.50;;;10.30;99.90;;;;;;5040909;28;20029;-70
2022/01/04 05:32:02;;;;;;;1.90;1.15;;;10.30;99.90;;;;;;5035582;28;20033;-69
2022/01/04 05:34:27;;;;;;;2.47;1.23;;;10.40;99.90;;;;;;5036890;28;20122;-69
2022/01/04 05:36:53;;;;;;;2.47;1.40;;;10.40;99.90;;;;;;5035620;28;20029;-69
2022/01/04 05:39:19;;;;;;;2.78;1.27;;;10.40;99.90;;;;;;5036294;28;20533;-69
2022/01/04 05:41:45;;;;;;;2.72;1.17;;;10.30;99.90;;;;;;5035937;28;20048;-69
2022/01/04 05:44:10;;;;;;;3.78;1.17;;;10.30;99.90;;;;;;5035251;28;20060;-69
2022/01/04 05:46:36;;;;;;;1.63;1.00;;;10.40;99.90;;;;;;5035943;28;20052;-70
2022/01/04 05:49:02;;;;;;;2.40;0.97;;;10.30;99.90;;;;;;5033433;28;20036;-69
2022/01/04 05:51:28;;;;;;;6.00;1.33;;;10.40;99.90;;;;;;5033515;28;20184;-70
2022/01/04 05:53:54;;;;;;;3.10;1.17;;;10.40;99.90;;;;;;5033450;28;20113;-69
2022/01/04 05:56:19;;;;;;;3.58;1.23;;;10.40;99.90;;;;;;5034850;28;20022;-69
2022/01/04 05:58:45;;;;;;;1.00;0.80;;;10.40;99.90;;;;;;5034387;28;20105;-69
2022/01/04 06:01:11;;;;;;;2.73;1.27;;;10.40;99.90;;;;;;5033401;28;20350;-69
2022/01/04 06:03:36;;;;;;;3.47;1.40;;;10.40;99.90;;;;;;5034301;28;20017;-69
2022/01/04 06:06:03;;;;;;;3.37;1.30;;;10.40;99.90;;;;;;5034556;28;20045;-69
2022/01/04 06:08:34;;;;;;;2.17;1.20;;;10.40;99.90;;;;;;5039865;28;20037;-69
2022/01/04 06:11:00;;;;;;;2.60;1.20;;;10.40;99.90;;;;;;5045105;28;20085;-69
2022/01/04 06:16:10;;;;;;;2.13;1.10;;;10.50;99.90;;;;;;5034509;28;20037;-69
2022/01/04 06:18:36;;;;;;;2.93;1.37;;;10.50;99.90;;;;;;5034227;28;20017;-69
2022/01/04 06:21:02;;;;;;;1.48;1.17;;;10.50;99.90;;;;;;5033886;28;20029;-67
2022/01/04 06:23:27;;;;;;;2.17;1.40;;;10.60;99.90;;;;;;5033822;28;20030;-68
2022/01/04 06:25:54;;;;;;;1.97;0.90;;;10.50;99.90;;;;;;5032778;28;20032;-68
2022/01/04 06:28:20;;;;;;;2.22;1.42;;;10.60;99.90;;;;;;5032378;28;20021;-67
2022/01/04 06:30:46;;;;;;;;;;;10.60;99.90;;;;;;5034244;28;20032;-68
2022/01/04 06:33:12;;;;;;;2.20;1.10;;;10.60;99.90;;;;;;5032378;28;19909;-68
2022/01/04 06:35:37;;;;;;;5.95;1.63;;;10.60;99.90;;;;;;5032290;28;20028;-67
2022/01/04 06:38:06;;;;;;;2.20;1.23;;;10.60;99.90;;;;;;5033824;28;20043;-69
2022/01/04 06:40:32;;;;;;;2.00;1.45;;;10.60;99.90;;;;;;5032411;28;20033;-69
2022/01/04 06:42:57;;;;;;;2.90;1.10;;;10.60;99.90;;;;;;5034441;28;20021;-69
2022/01/04 06:45:23;;;;;;;3.80;1.27;;;10.60;99.90;;;;;;5032525;28;20025;-68
2022/01/04 06:47:49;;;;;;;2.33;1.07;;;10.70;99.90;;;;;;5032450;28;20022;-70
2022/01/04 06:50:15;;;;;;;4.03;1.70;;;10.60;99.90;;;;;;5033380;28;20060;-69
2022/01/04 06:52:42;;;;;;;1.70;1.10;;;10.70;99.90;;;;;;5032325;28;20083;-68
2022/01/04 06:55:08;;;;;;;1.95;1.30;;;10.70;99.90;;;;;;5032244;28;20079;-68
2022/01/04 06:57:34;;;;;;;2.30;1.17;;;10.80;99.90;;;;;;5033817;28;20363;-70
2022/01/04 06:59:59;;;;;;;2.50;1.08;;;10.70;99.90;;;;;;5033552;28;20025;-69
2022/01/04 07:02:25;;;;;;;4.03;1.70;;;10.80;99.90;;;;;;5033554;28;20029;-69
2022/01/04 07:04:51;;;;;;;2.37;1.43;;;10.80;99.90;;;;;;5033509;28;20030;-69
2022/01/04 07:07:16;;;;;;;1.90;0.97;;;10.80;99.90;;;;;;5033527;28;20029;-68
2022/01/04 07:09:42;;;;;;;2.57;1.37;;;10.80;99.90;;;;;;5048230;28;20089;-69
2022/01/04 07:12:09;;;;;;;3.33;1.30;;;10.80;99.90;;;;;;5050881;28;20304;-69
2022/01/04 07:14:34;;;;;;;;;;;10.80;99.90;;;;;;5037493;28;20022;-68
2022/01/04 07:17:00;;;;;;;3.00;1.20;;;10.80;99.90;;;;;;5033564;28;19977;-69
2022/01/04 07:19:26;;;;;;;3.70;1.40;;;10.80;99.90;;;;;;5033070;28;20496;-70
2022/01/04 07:21:51;;;;;;;2.83;1.33;;;10.80;99.90;;;;;;5038907;28;20261;-69
2022/01/04 07:24:17;;;;;;;4.13;1.10;;;10.90;99.90;;;;;;5036966;28;20284;-69
2022/01/04 07:26:43;;;;;;;3.60;1.40;;;10.90;99.90;;;;;;5037264;28;20025;-69
2022/01/04 07:29:08;;;;;;;1.10;1.00;;;10.90;99.90;;;;;;5037202;28;20057;-70
2022/01/04 07:31:34;;;;;;;3.15;1.50;;;11.00;99.90;;;;;;5037305;28;20061;-70
2022/01/04 07:34:00;;;;;;;2.27;1.10;;;10.90;99.90;;;;;;5037541;28;20029;-69
2022/01/04 07:36:29;;;;;;;3.58;1.20;;;11.00;99.90;;;;;;5038295;28;20487;-69
2022/01/04 07:38:55;;;;;;;5.40;1.20;;;10.90;99.90;;;;;;5037337;28;20100;-69
2022/01/04 07:41:21;;;;;;;3.33;1.50;;;11.00;99.90;;;;;;5037449;28;20022;-69
2022/01/04 07:43:47;;;;;;;1.60;1.20;;;11.00;99.90;;;;;;5037158;28;20041;-70
2022/01/04 07:46:13;;;;;;;5.38;1.60;;;11.00;99.90;;;;;;5037353;28;20095;-69
2022/01/04 07:48:38;;;;;;;3.07;1.40;;;11.00;99.90;;;;;;5037457;28;20026;-69
2022/01/04 07:51:04;;;;;;;2.75;1.23;;;11.10;99.90;;;;;;5037079;28;20437;-70
2022/01/04 07:53:30;;;;;;;2.13;1.20;;;11.10;99.90;;;;;;5035552;28;20070;-69
2022/01/04 07:55:56;;;;;;;3.33;1.42;;;11.10;99.90;;;;;;5036821;28;20025;-69
2022/01/04 07:58:23;;;;;;;2.90;1.33;;;11.00;99.90;;;;;;5036977;28;20044;-70
2022/01/04 08:00:49;;;;;;;3.83;1.35;;;11.10;99.90;;;;;;5035809;28;20032;-70
2022/01/04 08:03:14;;;;;;;3.17;1.50;;;11.10;99.90;;;;;;5036992;28;20025;-70
2022/01/04 08:05:40;;;;;;;5.03;1.67;;;11.10;99.90;;;;;;5037079;28;20270;-70
2022/01/04 08:08:06;;;;;;;4.53;2.07;;;11.10;99.90;;;;;;5040369;28;20375;-70
2022/01/04 08:10:31;;;;;;;3.67;2.05;;;11.10;99.90;;;;;;5055125;28;20276;-70
2022/01/04 08:12:57;;;;;;;4.20;1.60;;;11.10;99.90;;;;;;5051161;28;20029;-70
2022/01/04 08:15:23;;;;;;;3.30;1.23;;;11.10;99.90;;;;;;5035573;28;20025;-69
2022/01/04 08:17:49;;;;;;;3.40;1.23;;;11.20;99.90;;;;;;5037415;28;20081;-71
2022/01/04 08:20:18;;;;;;;4.72;1.60;;;11.20;99.90;;;;;;5037729;28;20022;-71
2022/01/04 08:22:44;;;;;;;6.75;2.42;;;11.10;99.90;;;;;;5037449;28;20089;-70
2022/01/04 08:25:10;;;;;;;4.87;1.70;;;11.10;99.90;;;;;;5035825;28;20079;-69
2022/01/04 08:27:39;;;;;;;3.42;1.38;;;11.10;99.90;;;;;;5035633;28;20030;-70
2022/01/04 08:30:07;;;;;;;1.83;1.20;;;11.10;99.90;;;;;;5036432;28;20029;-71
2022/01/04 08:32:33;;;;;;;6.90;3.15;;;11.10;99.90;;;;;;5035828;28;20029;-69
2022/01/04 08:34:59;;;;;;;7.47;2.92;;;11.20;99.90;;;;;;5037191;28;20041;-70
2022/01/04 08:37:26;;;;;;;3.38;1.40;;;11.20;99.90;;;;;;5035895;28;20021;-71
2022/01/04 08:39:53;;;;;;;3.90;1.33;;;11.20;99.90;;;;;;5037055;28;20021;-71
2022/01/04 08:42:22;;;;;;;;;;;11.20;99.90;;;;;;5037389;28;20018;-69
2022/01/04 08:44:48;;;;;;;7.32;1.70;;;11.20;99.90;;;;;;5036659;28;20364;-69
2022/01/04 08:47:14;;;;;;;6.55;1.60;;;11.20;99.90;;;;;;5034187;28;20052;-68
2022/01/04 08:49:39;;;;;;;2.67;1.50;;;11.20;99.90;;;;;;5034119;28;20029;-70
2022/01/04 08:52:06;;;;;;;2.33;1.47;;;11.20;99.90;;;;;;5035746;28;20286;-71
2022/01/04 08:54:32;;;;;;;2.17;1.40;;;11.20;99.90;;;;;;5034574;28;20017;-70
2022/01/04 08:56:59;;;;;;;2.90;1.42;;;11.20;99.90;;;;;;5036729;28;20031;-68
2022/01/04 08:59:27;;;;;;;2.42;1.20;;;11.20;99.90;;;;;;5037193;28;20203;-71
2022/01/04 09:01:54;;;;;;;6.85;1.80;;;11.30;99.90;;;;;;5035598;28;20025;-69
2022/01/04 09:04:21;;;;;;;8.40;4.25;;;11.30;99.90;;;;;;5034472;28;20032;-69
2022/01/04 09:06:47;;;;;;;3.08;1.95;;;11.30;99.90;;;;;;5035132;28;20091;-69
2022/01/04 09:09:13;;;;;;;1.98;1.30;;;11.30;99.90;;;;;;5035798;28;20049;-69
2022/01/04 09:11:38;;;;;;;5.23;1.73;;;11.20;99.90;;;;;;5039303;28;20036;-69
2022/01/04 09:19:21;;;;;;;3.53;1.50;;;11.30;99.90;;;;;;5039493;28;20056;-69
2022/01/04 09:21:47;;;;;;;2.15;1.30;;;11.30;99.90;;;;;;5035224;28;20025;-69
2022/01/04 09:24:13;;;;;;;2.15;1.30;;;11.20;99.90;;;;;;5034204;28;20125;-70
2022/01/04 09:26:38;;;;;;;4.28;1.60;;;11.30;99.90;;;;;;5035604;28;20022;-70
2022/01/04 09:29:05;;;;;;;2.37;1.17;;;11.30;99.90;;;;;;5034103;28;20030;-70
2022/01/04 09:31:31;;;;;;;;;;;11.30;99.90;;;;;;5034117;28;20527;-69
2022/01/04 09:33:59;;;;;;;5.20;1.63;;;11.30;99.90;;;;;;5035103;28;19933;-69
2022/01/04 09:36:34;;;;;;;6.25;1.55;;;11.30;99.90;;;;;;5034932;28;20017;-69
2022/01/04 09:39:00;;;;;;;5.93;1.65;;;11.20;99.90;;;;;;5036969;28;20017;-69
2022/01/04 09:41:26;;;;;;;;;;;11.30;99.90;;;;;;5037539;28;20057;-68
2022/01/04 09:43:52;;;;;;;2.80;1.27;;;11.30;99.90;;;;;;5033633;28;19912;-69
2022/01/04 09:46:19;;;;;;;3.60;1.52;;;11.30;99.90;;;;;;5035313;28;20108;-69
2022/01/04 09:48:45;;;;;;;;;;;11.30;99.90;;;;;;5034438;28;20064;-70
2022/01/04 09:51:12;;;;;;;11.15;2.22;;;11.30;99.90;;;;;;5035339;28;20278;-69
2022/01/04 09:53:38;;;;;;;4.18;2.20;;;11.30;99.90;;;;;;5034447;28;20029;-69
2022/01/04 09:56:04;;;;;;;3.30;1.33;;;11.30;99.90;;;;;;5034612;28;20049;-68
2022/01/04 09:58:30;;;;;;;7.32;2.83;;;11.30;99.90;;;;;;5043937;28;20264;-69
2022/01/04 10:00:56;;;;;;;3.78;1.58;;;11.30;99.90;;;;;;5042266;28;20033;-68
2022/01/04 10:03:29;;;;;;;5.13;2.50;;;11.30;99.90;;;;;;5035018;28;20052;-69
2022/01/04 10:06:15;;;;;;;6.68;2.28;;;11.30;99.90;;;;;;5033580;28;20388;-69
2022/01/04 10:09:00;;;;;;;5.88;2.22;;;11.30;99.90;;;;;;5033127;28;20394;-71
2022/01/04 10:11:48;;;;;;;4.90;2.28;;;11.30;99.90;;;;;;5034383;28;20025;-73
2022/01/04 10:14:31;;;;;;;4.80;2.03;;;11.30;99.90;;;;;;5033926;28;20053;-71
2022/01/04 10:17:06;;;;;;;3.88;1.63;;;11.30;99.90;;;;;;5033241;28;20061;-71
2022/01/04 10:19:44;;;;;;;5.53;2.00;;;11.40;99.90;;;;;;5033033;28;20500;-70
2022/01/04 10:22:13;;;;;;;3.10;1.60;;;11.40;99.90;;;;;;5034024;28;20068;-70
2022/01/04 10:24:39;;;;;;;2.95;1.52;;;11.30;99.90;;;;;;5033920;28;20026;-69
2022/01/04 10:27:27;;;;;;;5.40;1.98;;;11.40;99.90;;;;;;5031940;28;20402;-69
2022/01/04 10:30:11;;;;;;;6.60;2.22;;;11.30;99.90;;;;;;5044063;28;20026;-72
2022/01/04 10:32:50;;;;;;;5.05;2.00;;;11.40;99.90;;;;;;5045953;28;20028;-73
2022/01/04 10:35:25;;;;;;;4.70;1.80;;;11.40;99.90;;;;;;5035837;28;20018;-72
2022/01/04 10:37:52;;;;;;;6.43;1.80;;;11.30;99.90;;;;;;5037055;28;20045;-71
2022/01/04 10:40:17;;;;;;;4.90;2.28;;;11.40;99.90;;;;;;5034944;28;20022;-71
2022/01/04 10:42:43;;;;;;;4.43;1.65;;;11.30;99.90;;;;;;5031683;28;20036;-69
2022/01/04 10:45:28;;;;;;;6.60;2.57;;;11.40;99.90;;;;;;5033342;28;20486;-69
2022/01/04 10:47:54;;;;;;;4.45;1.70;;;11.40;99.90;;;;;;5032867;28;20056;-68
2022/01/04 10:50:30;;;;;;;4.15;2.00;;;11.40;99.90;;;;;;5033753;28;20025;-69
2022/01/04 10:52:57;;;;;;;5.30;2.13;;;11.40;99.90;;;;;;5032996;28;20586;-70
2022/01/04 10:55:22;;;;;;;18.35;2.35;;;11.40;99.90;;;;;;5047308;28;20021;-70
2022/01/04 10:57:48;;;;;;;5.33;1.90;;;11.30;99.90;;;;;;5040177;28;20026;-67
2022/01/04 11:00:22;;;;;;;4.57;1.90;;;11.40;99.90;;;;;;5032005;28;20025;-66
2022/01/04 11:02:48;;;;;;;3.92;2.17;;;11.30;99.90;;;;;;5032744;28;20343;-67
2022/01/04 11:05:16;;;;;;;5.18;2.80;;;11.40;99.90;;;;;;5032611;28;20040;-67
2022/01/04 11:07:57;;;;;;;10.60;2.72;;;11.40;99.90;;;;;;5032935;28;20120;-67
2022/01/04 11:10:23;;;;;;;4.28;2.13;;;11.40;99.90;;;;;;5032393;28;20033;-67
2022/01/04 11:12:50;;;;;;;;;;;11.40;99.90;;;;;;5032963;28;20033;-67
2022/01/04 11:15:17;;;;;;;3.08;1.75;;;11.40;99.90;;;;;;5032555;28;19905;-67
2022/01/04 11:17:43;;;;;;;;;;;11.40;99.90;;;;;;5032841;28;20095;-66
2022/01/04 11:20:09;;;;;;;6.68;2.33;;;11.30;99.90;;;;;;5040186;28;20285;-65
2022/01/04 11:22:37;;;;;;;4.57;2.38;;;11.40;99.90;;;;;;5037861;28;20120;-68
2022/01/04 11:25:03;;;;;;;5.43;2.20;;;11.40;99.90;;;;;;5033169;28;20056;-68
2022/01/04 11:27:34;;;;;;;4.85;1.90;;;11.40;99.90;;;;;;5032821;28;20026;-68
2022/01/04 11:30:09;;;;;;;4.22;2.20;;;11.40;99.90;;;;;;5033204;28;20112;-68
2022/01/04 11:32:38;;;;;;;5.68;2.00;;;11.40;99.90;;;;;;5033033;28;20449;-68
2022/01/04 11:35:21;;;;;;;3.88;1.77;;;11.40;99.90;;;;;;5032514;28;20079;-66
2022/01/04 11:37:55;;;;;;;4.45;2.00;;;11.40;99.90;;;;;;5032858;28;20022;-68
2022/01/04 11:40:41;;;;;;;6.35;2.60;;;11.40;99.90;;;;;;5032863;28;20018;-70
2022/01/04 11:43:30;;;;;;;6.82;2.15;;;11.40;99.90;;;;;;5031426;28;20025;-69
2022/01/04 11:45:59;;;;;;;4.38;2.40;;;11.40;99.90;;;;;;5032968;28;20124;-67
2022/01/04 11:48:29;;;;;;;4.72;2.15;;;11.50;99.90;;;;;;5032488;28;20080;-67
2022/01/04 11:50:57;;;;;;;3.70;2.38;;;11.40;99.90;;;;;;5032508;28;20026;-68
2022/01/04 11:53:23;;;;;;;4.68;2.30;;;11.40;99.90;;;;;;5032430;28;20025;-67
2022/01/04 11:55:54;;;;;;;4.50;1.77;;;11.50;99.90;;;;;;5032664;28;20033;-66
2022/01/04 11:58:25;;;;;;;3.92;2.05;;;11.50;99.90;;;;;;5030837;28;20029;-67
2022/01/04 12:01:02;;;;;;;4.80;1.80;;;11.50;99.90;;;;;;5032536;28;20032;-68
2022/01/04 12:03:41;;;;;;;9.40;4.95;;;11.60;99.90;;;;;;5032748;28;20029;-66
2022/01/04 12:06:09;;;;;;;10.07;2.40;;;11.60;99.90;;;;;;5033503;28;20494;-66
2022/01/04 12:09:01;;;;;;;5.03;2.30;;;11.60;99.90;;;;;;5035011;28;20041;-66
2022/01/04 12:11:29;;;;;;;4.90;1.80;;;11.60;99.90;;;;;;5034241;28;20175;-67
2022/01/04 12:14:00;;;;;;;3.97;2.08;;;11.80;99.90;;;;;;5035992;28;20022;-66
2022/01/04 12:16:31;;;;;;;7.22;3.47;;;11.80;99.90;;;;;;5035855;28;20028;-67
2022/01/04 12:18:58;;;;;;;6.70;3.67;;;11.80;99.90;;;;;;5035817;28;20040;-68
2022/01/04 12:21:29;;;;;;;3.83;1.83;;;11.80;99.90;;;;;;5036073;28;20029;-67
2022/01/04 12:23:56;;;;;;;3.33;1.98;;;11.80;99.90;;;;;;5036543;28;20025;-67
2022/01/04 12:26:24;;;;;;;4.05;1.95;;;11.80;99.90;;;;;;5035835;28;20013;-67
2022/01/04 12:28:59;;;;;;;3.42;1.95;;;11.80;99.90;;;;;;5035836;28;20035;-67
2022/01/04 12:31:26;;;;;;;4.78;2.35;;;11.80;99.90;;;;;;5035830;28;20458;-66
2022/01/04 12:33:55;;;;;;;4.30;1.80;;;11.80;99.90;;;;;;5035648;28;20026;-65
2022/01/04 12:36:37;;;;;;;3.63;1.67;;;11.80;99.90;;;;;;5035654;28;20418;-66
2022/01/04 12:39:06;;;;;;;2.13;1.48;;;11.80;99.90;;;;;;5035414;28;20486;-67
2022/01/04 12:41:32;;;;;;;3.90;1.50;;;11.90;99.90;;;;;;5033893;28;20033;-66
2022/01/04 12:43:59;;;;;;;3.15;1.60;;;11.80;99.90;;;;;;5035842;28;20053;-66
2022/01/04 12:46:39;;;;;;;5.78;1.77;;;11.80;99.90;;;;;;5034166;28;20095;-66
2022/01/04 12:49:09;;;;;;;3.05;1.55;;;11.70;99.90;;;;;;5036273;28;20489;-66
2022/01/04 12:51:44;;;;;;;2.90;1.33;;;11.70;99.90;;;;;;5035678;28;20029;-67
2022/01/04 12:54:15;;;;;;;3.17;1.48;;;11.70;99.90;;;;;;5035585;28;20025;-66
2022/01/04 12:56:47;;;;;;;4.55;1.63;;;11.60;99.90;;;;;;5035181;28;20022;-66
2022/01/04 12:59:25;;;;;;;1.35;0.85;;;11.50;99.90;;;;;;5035215;28;20055;-66
2022/01/04 13:01:59;;;;;;;1.38;0.50;;;11.20;99.90;;;;;;5035367;28;20041;-66